createdAt,value
2023-01-12T00:00:32.158Z,9.06
2023-01-12T00:03:35.011Z,9.03
2023-01-12T00:06:39.018Z,8.99
2023-01-12T00:09:44.762Z,8.92
2023-01-12T00:12:47.467Z,8.92
2023-01-12T00:16:04.524Z,8.91
2023-01-12T00:19:12.666Z,8.92
2023-01-12T00:22:18.304Z,8.95
2023-01-12T00:25:21.476Z,8.98
2023-01-12T00:28:24.217Z,9.02
2023-01-12T00:31:26.950Z,9.03
2023-01-12T00:34:32.980Z,9.00
2023-01-12T00:37:37.226Z,8.99
2023-01-12T00:40:39.945Z,9.03
2023-01-12T00:44:00.156Z,9.04
2023-01-12T00:47:03.915Z,9.00
2023-01-12T00:50:07.276Z,8.95
2023-01-12T00:53:13.830Z,8.96
2023-01-12T00:56:17.167Z,8.92
2023-01-12T00:59:24.396Z,8.88
2023-01-12T01:02:27.937Z,8.90
2023-01-12T01:05:31.175Z,8.89
2023-01-12T01:08:37.777Z,8.84
2023-01-12T01:11:41.676Z,8.71
2023-01-12T01:14:44.450Z,8.84
2023-01-12T01:17:47.098Z,8.80
2023-01-12T01:20:49.783Z,8.80
2023-01-12T01:23:54.124Z,8.84
2023-01-12T01:26:56.815Z,8.82
2023-01-12T01:29:59.457Z,8.80
2023-01-12T01:33:02.209Z,8.85
2023-01-12T01:36:05.246Z,8.85
2023-01-12T01:39:09.314Z,8.79
2023-01-12T01:42:27.962Z,8.82
2023-01-12T01:45:30.848Z,8.85
2023-01-12T01:48:37.779Z,8.93
2023-01-12T01:51:43.055Z,8.98
2023-01-12T01:54:51.747Z,9.01
2023-01-12T01:57:58.417Z,9.08
2023-01-12T02:01:20.258Z,9.14
2023-01-12T02:04:25.949Z,9.18
2023-01-12T02:07:28.616Z,9.24
2023-01-12T02:10:32.827Z,9.25
2023-01-12T02:13:53.121Z,9.29
2023-01-12T02:17:08.174Z,9.34
2023-01-12T02:20:48.363Z,9.34
2023-01-12T02:24:20.507Z,9.17
2023-01-12T02:27:51.667Z,9.34
2023-01-12T02:31:17.773Z,9.36
2023-01-12T02:34:35.396Z,9.36
2023-01-12T02:37:47.535Z,9.36
2023-01-12T02:40:59.572Z,9.34
2023-01-12T02:44:05.395Z,9.29
2023-01-12T02:47:17.269Z,9.25
2023-01-12T02:50:24.948Z,9.21
2023-01-12T02:53:34.452Z,9.13
2023-01-12T02:56:41.010Z,9.15
2023-01-12T02:59:46.678Z,9.18
2023-01-12T03:02:52.093Z,9.16
2023-01-12T03:05:56.877Z,9.13
2023-01-12T03:08:59.684Z,9.09
2023-01-12T03:12:07.095Z,9.05
2023-01-12T03:15:12.466Z,9.06
2023-01-12T03:18:28.272Z,8.97
2023-01-12T03:21:36.461Z,8.92
2023-01-12T03:24:43.057Z,8.93
2023-01-12T03:27:49.970Z,8.88
2023-01-12T03:30:57.856Z,8.97
2023-01-12T03:34:03.007Z,9.02
2023-01-12T03:37:12.690Z,8.99
2023-01-12T03:40:19.949Z,8.95
2023-01-12T03:43:29.665Z,8.97
2023-01-12T03:46:36.768Z,9.00
2023-01-12T03:49:45.056Z,9.01
2023-01-12T03:52:49.522Z,8.98
2023-01-12T03:56:00.629Z,8.96
2023-01-12T03:59:05.080Z,9.02
2023-01-12T04:02:08.629Z,9.02
2023-01-12T04:05:14.130Z,9.10
2023-01-12T04:08:17.619Z,9.09
2023-01-12T04:11:37.802Z,9.25
2023-01-12T04:14:41.917Z,9.29
2023-01-12T04:17:44.625Z,9.40
2023-01-12T04:20:48.677Z,9.44
2023-01-12T04:23:50.407Z,9.47
2023-01-12T04:26:53.111Z,9.52
2023-01-12T04:29:55.961Z,9.54
2023-01-12T04:32:59.463Z,9.56
2023-01-12T04:36:03.504Z,9.56
2023-01-12T04:39:08.112Z,9.60
2023-01-12T04:42:31.000Z,9.61
2023-01-12T04:45:36.005Z,9.65
2023-01-12T04:48:40.704Z,9.62
2023-01-12T04:51:45.655Z,9.58
2023-01-12T04:54:48.316Z,9.54
2023-01-12T04:57:51.081Z,9.54
2023-01-12T05:00:53.753Z,9.48
2023-01-12T05:03:57.863Z,9.42
2023-01-12T05:07:02.541Z,9.31
2023-01-12T05:10:24.633Z,9.26
2023-01-12T05:13:35.461Z,9.20
2023-01-12T05:16:38.828Z,9.22
2023-01-12T05:19:41.735Z,9.25
2023-01-12T05:22:45.963Z,9.27
2023-01-12T05:25:48.631Z,9.29
2023-01-12T05:28:52.188Z,9.36
2023-01-12T05:31:54.949Z,9.39
2023-01-12T05:34:57.682Z,9.42
2023-01-12T05:38:02.158Z,9.45
2023-01-12T05:41:07.350Z,9.47
2023-01-12T05:44:09.691Z,9.48
2023-01-12T05:47:12.355Z,9.50
2023-01-12T05:50:17.293Z,9.49
2023-01-12T05:53:23.759Z,9.52
2023-01-12T05:56:27.924Z,9.41
2023-01-12T05:59:30.837Z,9.50
2023-01-12T06:02:36.735Z,9.45
2023-01-12T06:05:39.450Z,9.44
2023-01-12T06:08:43.530Z,9.43
2023-01-12T06:12:03.918Z,9.39
2023-01-12T06:15:09.736Z,9.39
2023-01-12T06:18:12.627Z,9.36
2023-01-12T06:21:15.625Z,9.31
2023-01-12T06:24:19.635Z,9.33
2023-01-12T06:27:22.409Z,9.30
2023-01-12T06:30:25.163Z,9.28
2023-01-12T06:33:28.870Z,9.29
2023-01-12T06:36:33.153Z,9.30
2023-01-12T06:39:37.195Z,9.31
2023-01-12T06:42:42.126Z,9.34
2023-01-12T06:45:45.378Z,9.36
2023-01-12T06:48:48.280Z,9.38
2023-01-12T06:51:51.512Z,9.39
2023-01-12T06:54:56.601Z,9.42
2023-01-12T06:58:05.783Z,9.43
2023-01-12T07:01:12.590Z,9.46
2023-01-12T07:04:24.167Z,9.47
2023-01-12T07:07:26.894Z,9.53
2023-01-12T07:10:32.608Z,9.51
2023-01-12T07:13:35.705Z,9.53
2023-01-12T07:16:45.597Z,9.53
2023-01-12T07:19:48.269Z,9.54
2023-01-12T07:22:51.148Z,9.58
2023-01-12T07:25:57.726Z,9.58
2023-01-12T07:29:02.719Z,9.75
2023-01-12T07:32:07.932Z,9.81
2023-01-12T07:35:10.835Z,9.90
2023-01-12T07:38:13.681Z,9.88
2023-01-12T07:41:37.762Z,9.95
2023-01-12T07:44:42.174Z,9.92
2023-01-12T07:47:53.315Z,9.81
2023-01-12T07:50:56.660Z,9.86
2023-01-12T07:53:59.369Z,9.94
2023-01-12T07:57:06.197Z,9.95
2023-01-12T08:00:13.482Z,9.96
2023-01-12T08:03:23.550Z,10.00
2023-01-12T08:06:26.241Z,10.06
2023-01-12T08:09:29.143Z,9.98
2023-01-12T08:12:33.492Z,9.93
2023-01-12T08:15:42.873Z,9.94
2023-01-12T08:18:49.132Z,9.93
2023-01-12T08:21:58.692Z,9.92
2023-01-12T08:25:06.247Z,9.95
2023-01-12T08:28:13.587Z,9.95
2023-01-12T08:34:22.436Z,9.96
2023-01-12T08:37:26.090Z,9.98
2023-01-12T08:40:50.268Z,10.01
2023-01-12T08:44:03.157Z,9.97
2023-01-12T08:47:15.343Z,9.92
2023-01-12T08:50:18.025Z,9.92
2023-01-12T08:53:20.649Z,9.91
2023-01-12T08:56:23.737Z,9.88
2023-01-12T08:59:28.623Z,9.85
2023-01-12T09:02:31.437Z,9.94
2023-01-12T09:05:34.225Z,9.96
2023-01-12T09:08:36.972Z,9.95
2023-01-12T09:11:42.944Z,10.04
2023-01-12T09:14:49.835Z,10.04
2023-01-12T09:17:53.961Z,10.06
2023-01-12T09:21:01.399Z,10.08
2023-01-12T09:24:04.486Z,10.10
2023-01-12T09:27:07.228Z,10.11
2023-01-12T09:30:14.477Z,10.14
2023-01-12T09:33:19.940Z,10.17
2023-01-12T09:36:26.384Z,10.06
2023-01-12T09:39:29.102Z,10.22
2023-01-12T09:42:49.409Z,10.19
2023-01-12T09:46:10.992Z,10.21
2023-01-12T09:49:15.892Z,10.21
2023-01-12T09:52:23.528Z,10.18
2023-01-12T09:55:30.403Z,10.19
2023-01-12T09:59:09.899Z,10.17
2023-01-12T10:02:14.921Z,10.21
2023-01-12T10:05:39.635Z,10.25
2023-01-12T10:08:45.192Z,10.28
2023-01-12T10:11:57.239Z,10.29
2023-01-12T10:15:29.903Z,10.30
2023-01-12T10:18:40.525Z,10.37
2023-01-12T10:21:43.310Z,10.46
2023-01-12T10:24:47.232Z,10.45
2023-01-12T10:27:52.169Z,10.52
2023-01-12T10:30:59.198Z,10.58
2023-01-12T10:34:07.023Z,10.59
2023-01-12T10:37:13.278Z,10.68
2023-01-12T10:40:32.924Z,10.85
2023-01-12T10:43:43.169Z,10.99
2023-01-12T10:47:09.881Z,11.08
2023-01-12T10:50:27.355Z,11.22
2023-01-12T10:53:37.072Z,11.39
2023-01-12T10:56:43.167Z,11.49
2023-01-12T10:59:55.656Z,11.59
2023-01-12T11:02:58.577Z,11.73
2023-01-12T11:06:24.589Z,11.83
2023-01-12T11:09:29.237Z,11.90
2023-01-12T11:12:35.823Z,11.88
2023-01-12T11:15:40.276Z,11.81
2023-01-12T11:18:48.952Z,11.60
2023-01-12T11:21:57.877Z,11.72
2023-01-12T11:25:05.373Z,11.75
2023-01-12T11:28:17.096Z,11.73
2023-01-12T11:31:23.760Z,11.97
2023-01-12T11:34:30.880Z,12.06
2023-01-12T11:37:39.368Z,12.07
2023-01-12T11:40:44.621Z,12.03
2023-01-12T11:43:59.012Z,11.97
2023-01-12T11:47:07.220Z,11.97
2023-01-12T11:50:16.882Z,12.01
2023-01-12T11:53:26.386Z,12.10
2023-01-12T11:56:53.033Z,12.20
2023-01-12T12:00:07.282Z,12.38
2023-01-12T12:03:28.200Z,12.45
2023-01-12T12:07:03.090Z,12.43
2023-01-12T12:10:21.147Z,12.48
2023-01-12T12:13:35.859Z,12.61
2023-01-12T12:16:48.438Z,12.74
2023-01-12T12:20:05.155Z,12.74
2023-01-12T12:23:23.960Z,12.72
2023-01-12T12:26:33.372Z,12.75
2023-01-12T12:29:51.500Z,12.63
2023-01-12T12:33:14.907Z,12.49
2023-01-12T12:36:24.242Z,12.41
2023-01-12T12:39:46.342Z,12.34
2023-01-12T12:43:22.975Z,12.27
2023-01-12T12:46:34.586Z,12.25
2023-01-12T12:49:40.503Z,12.21
2023-01-12T12:52:44.348Z,12.23
2023-01-12T12:55:47.569Z,12.20
2023-01-12T12:58:53.239Z,12.18
2023-01-12T13:01:56.614Z,12.06
2023-01-12T13:05:05.019Z,12.02
2023-01-12T13:08:17.947Z,11.94
2023-01-12T13:11:22.706Z,11.91
2023-01-12T13:14:29.034Z,11.98
2023-01-12T13:17:44.730Z,11.94
2023-01-12T13:20:55.687Z,11.91
2023-01-12T13:24:27.010Z,11.90
2023-01-12T13:27:54.175Z,11.89
2023-01-12T13:31:03.088Z,11.85
2023-01-12T13:34:31.601Z,11.77
2023-01-12T13:37:45.686Z,11.76
2023-01-12T13:40:56.031Z,11.68
2023-01-12T13:44:01.211Z,11.62
2023-01-12T13:47:20.059Z,11.56
2023-01-12T13:50:28.461Z,11.54
2023-01-12T13:53:32.974Z,11.57
2023-01-12T13:56:36.030Z,11.58
2023-01-12T13:59:38.780Z,11.63
2023-01-12T14:02:43.424Z,11.63
2023-01-12T14:05:58.242Z,11.61
2023-01-12T14:09:14.063Z,11.62
2023-01-12T14:12:32.050Z,11.60
2023-01-12T14:15:56.090Z,11.59
2023-01-12T14:19:00.308Z,11.58
2023-01-12T14:22:06.877Z,11.56
2023-01-12T14:25:21.480Z,11.45
2023-01-12T14:28:25.563Z,11.59
2023-01-12T14:31:34.685Z,11.61
2023-01-12T14:34:38.934Z,11.54
2023-01-12T14:37:41.752Z,11.52
2023-01-12T14:40:50.339Z,11.51
2023-01-12T14:44:10.412Z,11.51
2023-01-12T14:47:25.156Z,11.49
2023-01-12T14:50:29.192Z,11.49
2023-01-12T14:53:39.851Z,11.48
2023-01-12T14:56:45.144Z,11.47
2023-01-12T14:59:49.863Z,11.44
2023-01-12T15:02:54.210Z,11.44
2023-01-12T15:05:59.447Z,11.43
2023-01-12T15:09:02.308Z,11.43
2023-01-12T15:12:43.929Z,11.40
2023-01-12T15:16:10.916Z,11.39
2023-01-12T15:19:33.104Z,11.39
2023-01-12T15:22:54.636Z,11.38
2023-01-12T15:25:57.532Z,11.37
2023-01-12T15:29:00.349Z,11.38
2023-01-12T15:32:06.486Z,11.34
2023-01-12T15:35:16.348Z,11.38
2023-01-12T15:38:20.754Z,11.40
2023-01-12T15:41:39.890Z,11.39
2023-01-12T15:44:43.253Z,11.38
2023-01-12T15:47:45.927Z,11.36
2023-01-12T15:50:49.464Z,11.36
2023-01-12T15:53:53.582Z,11.36
2023-01-12T15:56:59.716Z,11.38
2023-01-12T16:00:03.209Z,11.37
2023-01-12T16:03:06.223Z,11.39
2023-01-12T16:06:09.024Z,11.42
2023-01-12T16:09:13.203Z,11.42
2023-01-12T16:12:16.137Z,11.42
2023-01-12T16:15:20.963Z,11.45
2023-01-12T16:18:23.671Z,11.42
2023-01-12T16:21:28.469Z,11.40
2023-01-12T16:24:32.762Z,11.39
2023-01-12T16:27:37.458Z,11.33
2023-01-12T16:30:44.949Z,11.44
2023-01-12T16:33:48.411Z,11.43
2023-01-12T16:36:51.571Z,11.45
2023-01-12T16:39:57.135Z,11.44
2023-01-12T16:42:59.871Z,11.43
2023-01-12T16:46:03.555Z,11.46
2023-01-12T16:49:06.455Z,11.44
2023-01-12T16:52:13.359Z,11.24
2023-01-12T16:55:17.503Z,11.45
2023-01-12T16:58:20.638Z,11.48
2023-01-12T17:01:24.826Z,11.47
2023-01-12T17:04:27.997Z,11.48
2023-01-12T17:07:30.983Z,11.51
2023-01-12T17:10:36.470Z,11.47
2023-01-12T17:13:40.256Z,11.44
2023-01-12T17:16:43.826Z,11.50
2023-01-12T17:19:47.355Z,11.49
2023-01-12T17:22:50.153Z,11.52
2023-01-12T17:25:55.794Z,11.52
2023-01-12T17:28:58.625Z,11.53
2023-01-12T17:32:06.708Z,11.55
2023-01-12T17:35:10.839Z,11.57
2023-01-12T17:38:13.681Z,11.55
2023-01-12T17:41:32.177Z,11.54
2023-01-12T17:44:34.851Z,11.56
2023-01-12T17:47:37.592Z,11.56
2023-01-12T17:50:41.074Z,11.58
2023-01-12T17:53:44.060Z,11.56
2023-01-12T17:56:48.164Z,11.54
2023-01-12T17:59:51.580Z,11.54
2023-01-12T18:02:54.619Z,11.55
2023-01-12T18:06:04.499Z,11.56
2023-01-12T18:09:11.175Z,11.49
2023-01-12T18:12:16.439Z,11.56
2023-01-12T18:15:19.879Z,11.55
2023-01-12T18:18:22.657Z,11.55
2023-01-12T18:21:27.632Z,11.58
2023-01-12T18:24:30.544Z,11.58
2023-01-12T18:27:34.600Z,11.57
2023-01-12T18:30:37.429Z,11.53
2023-01-12T18:33:40.450Z,11.56
2023-01-12T18:36:43.676Z,11.54
2023-01-12T18:39:46.802Z,11.51
2023-01-12T18:42:49.942Z,11.49
2023-01-12T18:45:52.611Z,11.51
2023-01-12T18:48:54.395Z,11.49
2023-01-12T18:52:16.016Z,11.47
2023-01-12T18:55:19.250Z,11.45
2023-01-12T18:58:24.580Z,11.50
2023-01-12T19:01:27.317Z,11.48
2023-01-12T19:04:48.236Z,11.50
2023-01-12T19:08:05.199Z,11.51
2023-01-12T19:11:09.533Z,11.53
2023-01-12T19:14:30.825Z,11.52
2023-01-12T19:17:33.821Z,11.55
2023-01-12T19:20:39.721Z,11.53
2023-01-12T19:24:00.056Z,11.52
2023-01-12T19:27:20.886Z,11.50
2023-01-12T19:30:25.018Z,11.48
2023-01-12T19:33:27.897Z,11.44
2023-01-12T19:36:30.573Z,11.39
2023-01-12T19:39:59.640Z,11.35
2023-01-12T19:43:13.691Z,11.34
2023-01-12T19:46:18.210Z,11.34
2023-01-12T19:49:20.942Z,11.23
2023-01-12T19:52:23.655Z,10.93
2023-01-12T19:55:26.690Z,11.13
2023-01-12T19:58:29.632Z,11.12
2023-01-12T20:01:33.887Z,11.17
2023-01-12T20:04:36.925Z,11.15
2023-01-12T20:07:39.789Z,11.12
2023-01-12T20:10:42.503Z,11.14
2023-01-12T20:13:45.166Z,11.15
2023-01-12T20:16:49.216Z,10.96
2023-01-12T20:19:52.136Z,11.13
2023-01-12T20:22:55.617Z,11.13
2023-01-12T20:25:58.960Z,11.12
2023-01-12T20:29:01.699Z,11.11
2023-01-12T20:32:06.081Z,11.10
2023-01-12T20:35:10.430Z,11.12
2023-01-12T20:38:16.250Z,11.11
2023-01-12T20:41:19.919Z,11.09
2023-01-12T20:44:22.917Z,11.10
2023-01-12T20:47:27.795Z,11.11
2023-01-12T20:50:30.556Z,11.12
2023-01-12T20:53:33.275Z,11.15
2023-01-12T20:56:35.964Z,11.14
2023-01-12T20:59:38.962Z,11.15
2023-01-12T21:02:43.100Z,11.25
2023-01-12T21:05:47.367Z,11.21
2023-01-12T21:08:50.074Z,11.21
2023-01-12T21:11:53.338Z,11.21
2023-01-12T21:14:56.184Z,11.26
2023-01-12T21:18:00.334Z,11.25
2023-01-12T21:21:03.465Z,11.27
2023-01-12T21:24:06.708Z,11.30
2023-01-12T21:27:09.443Z,11.30
2023-01-12T21:30:12.945Z,11.31
2023-01-12T21:33:17.801Z,11.32
2023-01-12T21:36:20.632Z,11.33
2023-01-12T21:39:23.370Z,11.38
2023-01-12T21:42:43.657Z,11.38
2023-01-12T21:45:49.107Z,11.35
2023-01-12T21:48:53.252Z,11.39
2023-01-12T21:51:55.909Z,11.43
2023-01-12T21:54:58.597Z,11.41
2023-01-12T21:58:02.912Z,11.43
2023-01-12T22:01:10.801Z,11.41
2023-01-12T22:04:14.925Z,11.42
2023-01-12T22:07:18.056Z,11.42
2023-01-12T22:10:21.032Z,11.46
2023-01-12T22:13:23.921Z,11.42
2023-01-12T22:16:27.361Z,11.43
2023-01-12T22:19:31.877Z,11.41
2023-01-12T22:22:35.373Z,11.43
2023-01-12T22:25:38.866Z,11.40
2023-01-12T22:28:43.718Z,11.46
2023-01-12T22:31:46.567Z,11.46
2023-01-12T22:34:51.153Z,11.47
2023-01-12T22:37:54.760Z,11.51
2023-01-12T22:40:57.837Z,11.49
2023-01-12T22:44:02.677Z,11.51
2023-01-12T22:47:05.400Z,11.51
2023-01-12T22:50:11.523Z,11.51
2023-01-12T22:53:14.862Z,11.50
2023-01-12T22:56:20.440Z,11.51
2023-01-12T22:59:23.259Z,11.46
2023-01-12T23:02:44.891Z,11.44
2023-01-12T23:05:56.230Z,11.46
2023-01-12T23:08:59.059Z,11.44
2023-01-12T23:12:02.080Z,11.44
2023-01-12T23:15:05.452Z,11.46
2023-01-12T23:18:09.222Z,11.46
2023-01-12T23:21:15.820Z,11.42
2023-01-12T23:24:18.713Z,11.45
2023-01-12T23:27:21.570Z,11.45
2023-01-12T23:30:24.401Z,11.41
2023-01-12T23:33:27.296Z,11.43
2023-01-12T23:36:31.909Z,11.39
2023-01-12T23:39:34.748Z,11.44
2023-01-12T23:42:37.709Z,11.45
2023-01-12T23:45:40.597Z,11.46
2023-01-12T23:48:43.825Z,11.45
2023-01-12T23:51:48.045Z,11.44
2023-01-12T23:54:51.874Z,11.45
2023-01-12T23:57:54.724Z,11.47
